createdAt,value
2023-02-20T00:01:35.989Z,99983.03
2023-02-20T00:04:03.002Z,99982.19
2023-02-20T00:06:30.459Z,99979.03
2023-02-20T00:08:57.419Z,99976.03
2023-02-20T00:11:24.660Z,99982.66
2023-02-20T00:13:51.707Z,99981.53
2023-02-20T00:16:18.925Z,99970.16
2023-02-20T00:18:48.171Z,99976.25
2023-02-20T00:21:15.629Z,99976.75
2023-02-20T00:23:42.723Z,99972.81
2023-02-20T00:26:14.765Z,99976.16
2023-02-20T00:28:44.610Z,99967.53
2023-02-20T00:31:16.456Z,99973.16
2023-02-20T00:33:43.600Z,99971.53
2023-02-20T00:36:19.971Z,99972.50
2023-02-20T00:38:47.587Z,99968.53
2023-02-20T00:41:17.365Z,99973.50
2023-02-20T00:43:44.533Z,99970.88
2023-02-20T00:46:14.761Z,99955.19
2023-02-20T00:48:42.844Z,99960.63
2023-02-20T00:51:29.619Z,99961.28
2023-02-20T00:53:57.082Z,99953.75
2023-02-20T00:56:26.784Z,99949.97
2023-02-20T00:58:54.313Z,99947.13
2023-02-20T01:01:22.332Z,99944.81
2023-02-20T01:03:51.163Z,99946.13
2023-02-20T01:06:19.147Z,99946.13
2023-02-20T01:08:46.959Z,99954.22
2023-02-20T01:11:14.156Z,99953.69
2023-02-20T01:13:41.576Z,99952.72
2023-02-20T01:16:09.469Z,99952.34
2023-02-20T01:18:36.585Z,99952.66
2023-02-20T01:21:03.911Z,99950.19
2023-02-20T01:23:31.270Z,99960.72
2023-02-20T01:25:58.437Z,99966.00
2023-02-20T01:28:25.505Z,99960.19
2023-02-20T01:30:52.845Z,99961.22
2023-02-20T01:33:19.971Z,99965.91
2023-02-20T01:35:47.270Z,99960.63
2023-02-20T01:38:14.272Z,99955.34
2023-02-20T01:40:49.242Z,99959.28
2023-02-20T01:43:17.496Z,99954.69
2023-02-20T01:45:45.904Z,99955.47
2023-02-20T01:48:24.636Z,99954.63
2023-02-20T01:50:58.523Z,99951.03
2023-02-20T01:53:30.594Z,99952.97
2023-02-20T01:56:05.179Z,99950.50
2023-02-20T01:58:46.906Z,99946.72
2023-02-20T02:01:14.214Z,99943.78
2023-02-20T02:03:47.831Z,99946.56
2023-02-20T02:06:17.819Z,99937.84
2023-02-20T02:08:46.549Z,99927.97
2023-02-20T02:11:22.832Z,99918.56
2023-02-20T02:13:50.338Z,99917.72
2023-02-20T02:17:03.231Z,99918.84
2023-02-20T02:19:49.368Z,99914.09
2023-02-20T02:22:49.866Z,99908.66
2023-02-20T02:25:56.750Z,99903.22
2023-02-20T02:29:17.599Z,99896.31
2023-02-20T02:32:17.276Z,99905.72
2023-02-20T02:35:03.279Z,99900.94
2023-02-20T02:37:53.071Z,99901.28
2023-02-20T02:41:06.160Z,99889.06
2023-02-20T02:43:46.386Z,99890.41
2023-02-20T02:46:34.625Z,99887.63
2023-02-20T02:49:16.495Z,99880.19
2023-02-20T02:51:47.948Z,99882.13
2023-02-20T02:54:20.801Z,99876.25
2023-02-20T02:56:49.212Z,99879.53
2023-02-20T02:59:32.407Z,99889.13
2023-02-20T03:02:08.107Z,99892.56
2023-02-20T03:04:38.213Z,99893.41
2023-02-20T03:07:16.204Z,99893.09
2023-02-20T03:10:20.359Z,99898.06
2023-02-20T03:12:51.249Z,99902.50
2023-02-20T03:15:33.535Z,99885.84
2023-02-20T03:18:35.001Z,99871.69
2023-02-20T03:21:14.769Z,99861.13
2023-02-20T03:23:57.336Z,99849.75
2023-02-20T03:26:34.483Z,99849.75
2023-02-20T03:29:18.932Z,99840.03
2023-02-20T03:32:11.346Z,99835.72
2023-02-20T03:35:00.141Z,99847.28
2023-02-20T03:37:50.173Z,99842.97
2023-02-20T03:40:39.184Z,99835.38
2023-02-20T03:43:25.970Z,99828.47
2023-02-20T03:46:03.386Z,99831.25
2023-02-20T03:48:45.045Z,99840.97
2023-02-20T03:51:14.151Z,99845.94
2023-02-20T03:53:56.787Z,99852.22
2023-02-20T03:56:32.886Z,99840.66
2023-02-20T03:59:18.605Z,99845.09
2023-02-20T04:01:54.774Z,99842.63
2023-02-20T04:04:33.086Z,99842.94
2023-02-20T04:07:12.484Z,99848.56
2023-02-20T04:09:45.646Z,99855.41
2023-02-20T04:12:38.731Z,99854.44
2023-02-20T04:15:10.142Z,99848.88
2023-02-20T04:17:48.387Z,99849.69
2023-02-20T04:20:17.336Z,99843.59
2023-02-20T04:23:02.854Z,99848.03
2023-02-20T04:25:53.506Z,99838.63
2023-02-20T04:28:22.559Z,99836.97
2023-02-20T04:30:55.972Z,99833.34
2023-02-20T04:33:25.336Z,99832.53
2023-02-20T04:35:58.360Z,99829.41
2023-02-20T04:38:26.344Z,99836.34
2023-02-20T04:40:53.501Z,99840.28
2023-02-20T04:43:22.905Z,99835.31
2023-02-20T04:45:51.500Z,99821.78
2023-02-20T04:48:19.612Z,99817.50
2023-02-20T04:50:47.578Z,99806.47
2023-02-20T04:53:16.078Z,99800.34
2023-02-20T04:55:43.296Z,99801.00
2023-02-20T04:58:14.260Z,99801.66
2023-02-20T05:00:51.894Z,99804.59
2023-02-20T05:03:19.174Z,99812.50
2023-02-20T05:05:46.180Z,99801.97
2023-02-20T05:08:13.505Z,99800.31
2023-02-20T05:10:40.654Z,99805.56
2023-02-20T05:13:07.892Z,99799.47
2023-02-20T05:15:35.091Z,99803.94
2023-02-20T05:18:02.364Z,99799.81
2023-02-20T05:20:47.838Z,99795.50
2023-02-20T05:23:15.101Z,99788.09
2023-02-20T05:25:42.049Z,99784.13
2023-02-20T05:28:09.550Z,99772.63
2023-02-20T05:30:36.681Z,99773.47
2023-02-20T05:33:04.089Z,99771.63
2023-02-20T05:35:31.225Z,99775.94
2023-02-20T05:37:58.421Z,99786.47
2023-02-20T05:40:25.360Z,99792.56
2023-02-20T05:42:52.614Z,99787.13
2023-02-20T05:45:19.573Z,99793.06
2023-02-20T05:47:46.764Z,99782.53
2023-02-20T05:50:13.816Z,99780.88
2023-02-20T05:52:41.066Z,99784.50
2023-02-20T05:55:08.574Z,99777.59
2023-02-20T05:57:35.827Z,99778.09
2023-02-20T06:00:04.192Z,99776.44
2023-02-20T06:02:39.415Z,99777.59
2023-02-20T06:05:07.650Z,99786.28
2023-02-20T06:07:35.963Z,99791.44
2023-02-20T06:10:08.664Z,99803.28
2023-02-20T06:12:35.934Z,99804.97
2023-02-20T06:15:04.587Z,99801.84
2023-02-20T06:17:34.639Z,99792.63
2023-02-20T06:20:03.537Z,99789.84
2023-02-20T06:22:30.707Z,99800.41
2023-02-20T06:24:57.734Z,99802.34
2023-02-20T06:27:25.151Z,99800.69
2023-02-20T06:29:53.031Z,99799.69
2023-02-20T06:32:20.439Z,99804.84
2023-02-20T06:34:47.563Z,99803.03
2023-02-20T06:37:14.948Z,99801.06
2023-02-20T06:39:45.743Z,99801.06
2023-02-20T06:42:12.945Z,99803.38
2023-02-20T06:44:39.907Z,99806.69
2023-02-20T06:47:09.138Z,99806.69
2023-02-20T06:49:36.987Z,99815.25
2023-02-20T06:52:07.788Z,99812.63
2023-02-20T06:54:35.116Z,99809.97
2023-02-20T06:57:05.054Z,99797.47
2023-02-20T06:59:33.017Z,99786.59
2023-02-20T07:02:00.651Z,99785.28
2023-02-20T07:04:28.084Z,99784.31
2023-02-20T07:06:56.188Z,99770.81
2023-02-20T07:09:25.125Z,99760.91
2023-02-20T07:11:53.426Z,99768.66
2023-02-20T07:14:21.468Z,99764.88
2023-02-20T07:16:48.757Z,99761.94
2023-02-20T07:19:15.801Z,99746.75
2023-02-20T07:21:43.080Z,99750.72
2023-02-20T07:24:10.018Z,99759.97
2023-02-20T07:26:39.338Z,99755.34
2023-02-20T07:29:07.336Z,99753.38
2023-02-20T07:31:34.805Z,99747.78
2023-02-20T07:34:02.871Z,99740.38
2023-02-20T07:36:36.502Z,99734.59
2023-02-20T07:39:06.630Z,99729.81
2023-02-20T07:41:37.560Z,99728.97
2023-02-20T07:44:06.900Z,99728.16
2023-02-20T07:46:34.476Z,99735.59
2023-02-20T07:49:04.020Z,99730.81
2023-02-20T07:51:32.494Z,99728.50
2023-02-20T07:53:59.761Z,99711.97
2023-02-20T07:56:27.371Z,99703.22
2023-02-20T07:58:54.553Z,99703.88
2023-02-20T08:01:21.965Z,99697.56
2023-02-20T08:03:49.041Z,99695.94
2023-02-20T08:06:20.237Z,99687.31
2023-02-20T08:08:51.802Z,99683.00
2023-02-20T08:11:21.948Z,99687.28
2023-02-20T08:13:51.490Z,99678.13
2023-02-20T08:16:18.768Z,99676.75
2023-02-20T08:18:45.883Z,99671.91
2023-02-20T08:21:13.167Z,99666.56
2023-02-20T08:23:40.150Z,99683.03
2023-02-20T08:26:07.565Z,99681.28
2023-02-20T08:28:34.714Z,99687.53
2023-02-20T08:31:04.062Z,99680.38
2023-02-20T08:33:31.288Z,99670.88
2023-02-20T08:35:58.880Z,99670.84
2023-02-20T08:38:34.375Z,99670.78
2023-02-20T08:41:11.845Z,99665.78
2023-02-20T08:43:41.187Z,99665.03
2023-02-20T08:46:08.538Z,99648.81
2023-02-20T08:48:35.855Z,99644.44
2023-02-20T08:51:03.563Z,99634.88
2023-02-20T08:53:30.609Z,99631.34
2023-02-20T08:55:57.910Z,99638.44
2023-02-20T08:58:26.115Z,99638.09
2023-02-20T09:00:54.740Z,99628.13
2023-02-20T09:03:23.080Z,99632.25
2023-02-20T09:05:50.567Z,99622.56
2023-02-20T09:08:17.601Z,99613.31
2023-02-20T09:10:45.237Z,99608.16
2023-02-20T09:13:12.981Z,99622.69
2023-02-20T09:15:40.693Z,99627.69
2023-02-20T09:18:12.639Z,99613.03
2023-02-20T09:20:41.449Z,99597.63
2023-02-20T09:23:08.821Z,99596.06
2023-02-20T09:25:37.159Z,99588.34
2023-02-20T09:28:04.392Z,99580.19
2023-02-20T09:30:31.988Z,99567.53
2023-02-20T09:32:58.944Z,99572.53
2023-02-20T09:35:31.057Z,99559.91
2023-02-20T09:37:58.245Z,99550.53
2023-02-20T09:40:29.375Z,99548.50
2023-02-20T09:43:29.192Z,99541.56
2023-02-20T09:46:16.530Z,99538.91
2023-02-20T09:49:10.111Z,99535.69
2023-02-20T09:51:44.558Z,99527.34
2023-02-20T09:54:24.693Z,99522.81
2023-02-20T09:57:01.330Z,99529.78
2023-02-20T09:59:57.566Z,99520.03
2023-02-20T10:02:34.407Z,99525.38
2023-02-20T10:05:21.120Z,99521.72
2023-02-20T10:07:51.033Z,99515.81
2023-02-20T10:10:34.081Z,99518.94
2023-02-20T10:13:34.476Z,99515.94
2023-02-20T10:16:36.794Z,99510.88
2023-02-20T10:19:49.527Z,99499.06
2023-02-20T10:22:25.187Z,99492.56
2023-02-20T10:25:19.785Z,99490.13
2023-02-20T10:28:11.025Z,99474.63
2023-02-20T10:30:50.216Z,99477.91
2023-02-20T10:33:30.893Z,99473.81
2023-02-20T10:36:15.940Z,99452.16
2023-02-20T10:38:54.124Z,99454.19
2023-02-20T10:41:32.806Z,99435.19
2023-02-20T10:44:52.569Z,99433.34
2023-02-20T10:47:38.023Z,99432.91
2023-02-20T10:50:54.040Z,99406.72
2023-02-20T10:54:01.361Z,99407.16
2023-02-20T10:56:50.545Z,99417.78
2023-02-20T10:59:39.433Z,99416.56
2023-02-20T11:02:19.922Z,99414.94
2023-02-20T11:04:57.467Z,99409.22
2023-02-20T11:07:25.428Z,99401.03
2023-02-20T11:09:52.849Z,99388.38
2023-02-20T11:12:51.878Z,99381.00
2023-02-20T11:15:29.049Z,99360.53
2023-02-20T11:17:58.160Z,99344.56
2023-02-20T11:20:46.327Z,99354.81
2023-02-20T11:23:39.880Z,99333.91
2023-02-20T11:26:21.652Z,99331.06
2023-02-20T11:29:34.732Z,99329.00
2023-02-20T11:32:31.697Z,99337.97
2023-02-20T11:35:34.788Z,99342.50
2023-02-20T11:38:21.215Z,99334.91
2023-02-20T11:41:00.688Z,99332.88
2023-02-20T11:43:43.552Z,99316.66
2023-02-20T11:46:22.565Z,99318.50
2023-02-20T11:49:31.473Z,99309.72
2023-02-20T11:52:20.661Z,99301.13
2023-02-20T11:55:09.948Z,99298.66
2023-02-20T11:57:52.387Z,99290.22
2023-02-20T12:00:23.421Z,99286.34
2023-02-20T12:03:22.892Z,99280.97
2023-02-20T12:05:51.864Z,99262.13
2023-02-20T12:09:01.960Z,99261.69
2023-02-20T12:11:29.858Z,99249.34
2023-02-20T12:14:00.804Z,99244.44
2023-02-20T12:16:49.921Z,99235.38
2023-02-20T12:20:05.747Z,99218.16
2023-02-20T12:22:39.029Z,99197.22
2023-02-20T12:25:21.151Z,99201.25
2023-02-20T12:28:49.085Z,99218.00
2023-02-20T12:31:38.143Z,99195.47
2023-02-20T12:34:20.684Z,99183.63
2023-02-20T12:37:28.983Z,99186.47
2023-02-20T12:40:27.623Z,99209.78
2023-02-20T12:43:40.309Z,99193.81
2023-02-20T12:47:01.648Z,99190.78
2023-02-20T12:50:24.744Z,99191.38
2023-02-20T12:53:21.223Z,99183.63
2023-02-20T12:56:16.782Z,99150.19
2023-02-20T12:59:38.707Z,99140.31
2023-02-20T13:02:48.444Z,99137.56
2023-02-20T13:05:24.592Z,99117.06
2023-02-20T13:08:01.408Z,99136.31
2023-02-20T13:10:46.756Z,99131.75
2023-02-20T13:13:14.239Z,99115.25
2023-02-20T13:16:11.432Z,99116.81
2023-02-20T13:19:22.480Z,99113.63
2023-02-20T13:21:50.168Z,99104.38
2023-02-20T13:24:20.103Z,99108.38
2023-02-20T13:26:56.904Z,99121.13
2023-02-20T13:29:27.875Z,99091.34
2023-02-20T13:32:00.145Z,99088.22
2023-02-20T13:34:36.256Z,99090.00
2023-02-20T13:37:05.188Z,99099.19
2023-02-20T13:39:32.144Z,99081.13
2023-02-20T13:42:04.879Z,99083.97
2023-02-20T13:44:43.348Z,99063.13
2023-02-20T13:47:27.325Z,99062.16
2023-02-20T13:50:00.260Z,99052.50
2023-02-20T13:52:43.071Z,99033.38
2023-02-20T13:55:10.768Z,99032.38
2023-02-20T13:57:52.017Z,99023.31
2023-02-20T14:00:51.192Z,99018.56
2023-02-20T14:03:23.579Z,99001.06
2023-02-20T14:06:11.758Z,98993.28
2023-02-20T14:08:46.972Z,98990.41
2023-02-20T14:11:31.223Z,98985.06
2023-02-20T14:14:08.928Z,98983.22
2023-02-20T14:16:42.102Z,98972.75
2023-02-20T14:19:23.833Z,98963.34
2023-02-20T14:21:51.950Z,98953.13
2023-02-20T14:24:28.979Z,98954.44
2023-02-20T14:26:56.901Z,98932.84
2023-02-20T14:29:33.512Z,98926.56
2023-02-20T14:32:03.838Z,98916.72
2023-02-20T14:34:54.073Z,98911.00
2023-02-20T14:37:48.827Z,98915.75
2023-02-20T14:40:34.755Z,98908.19
2023-02-20T14:43:08.238Z,98899.28
2023-02-20T14:45:36.109Z,98898.75
2023-02-20T14:48:05.024Z,98885.88
2023-02-20T14:50:36.737Z,98880.41
2023-02-20T14:53:20.802Z,98877.41
2023-02-20T14:55:51.877Z,98867.41
2023-02-20T14:58:25.147Z,98858.22
2023-02-20T15:00:53.529Z,98849.66
2023-02-20T15:03:31.553Z,98836.63
2023-02-20T15:06:04.861Z,98847.75
2023-02-20T15:08:35.998Z,98826.88
2023-02-20T15:11:15.875Z,98829.41
2023-02-20T15:13:46.947Z,98829.41
2023-02-20T15:16:31.029Z,98824.19
2023-02-20T15:18:58.893Z,98829.13
2023-02-20T15:21:38.171Z,98826.31
2023-02-20T15:24:36.996Z,98834.16
2023-02-20T15:27:18.749Z,98828.25
2023-02-20T15:29:47.741Z,98832.41
2023-02-20T15:32:24.734Z,98826.47
2023-02-20T15:34:56.164Z,98833.53
2023-02-20T15:37:33.895Z,98832.34
2023-02-20T15:40:46.068Z,98835.66
2023-02-20T15:43:38.182Z,98842.25
2023-02-20T15:46:04.041Z,98831.25
2023-02-20T15:48:31.402Z,98828.00
2023-02-20T15:50:58.620Z,98833.31
2023-02-20T15:53:31.851Z,98821.25
2023-02-20T15:56:04.675Z,98802.66
2023-02-20T15:58:37.797Z,98802.06
2023-02-20T16:01:06.690Z,98799.41
2023-02-20T16:03:50.499Z,98803.09
2023-02-20T16:06:19.696Z,98807.38
2023-02-20T16:08:47.435Z,98791.19
2023-02-20T16:11:15.015Z,98794.66
2023-02-20T16:13:46.814Z,98795.25
2023-02-20T16:16:25.011Z,98802.25
2023-02-20T16:18:54.996Z,98800.16
2023-02-20T16:21:24.019Z,98812.47
2023-02-20T16:23:53.016Z,98810.38
2023-02-20T16:26:28.699Z,98810.16
2023-02-20T16:29:02.600Z,98817.47
2023-02-20T16:32:00.730Z,98809.03
2023-02-20T16:34:32.306Z,98819.25
2023-02-20T16:37:03.579Z,98829.47
2023-02-20T16:39:30.880Z,98838.03
2023-02-20T16:41:59.287Z,98835.13
2023-02-20T16:44:44.866Z,98832.84
2023-02-20T16:47:21.981Z,98828.94
2023-02-20T16:49:50.319Z,98833.00
2023-02-20T16:52:28.784Z,98831.66
2023-02-20T16:54:58.939Z,98849.03
2023-02-20T16:57:27.034Z,98844.69
2023-02-20T16:59:59.409Z,98844.22
2023-02-20T17:02:29.970Z,98850.72
2023-02-20T17:04:58.435Z,98856.44
2023-02-20T17:07:26.478Z,98837.53
2023-02-20T17:09:54.031Z,98846.13
2023-02-20T17:12:23.727Z,98839.28
2023-02-20T17:14:53.497Z,98830.03
2023-02-20T17:17:22.110Z,98837.38
2023-02-20T17:19:52.804Z,98829.53
2023-02-20T17:22:21.170Z,98823.72
2023-02-20T17:24:48.689Z,98823.25
2023-02-20T17:27:16.257Z,98820.34
2023-02-20T17:29:45.360Z,98826.88
2023-02-20T17:32:14.105Z,98820.28
2023-02-20T17:34:42.177Z,98832.56
2023-02-20T17:37:10.586Z,98828.41
2023-02-20T17:39:38.920Z,98826.31
2023-02-20T17:42:07.189Z,98818.91
2023-02-20T17:44:34.898Z,98809.63
2023-02-20T17:47:02.099Z,98815.56
2023-02-20T17:49:29.658Z,98828.69
2023-02-20T17:52:01.261Z,98822.84
2023-02-20T17:54:32.280Z,98822.41
2023-02-20T17:56:59.785Z,98821.38
2023-02-20T17:59:27.711Z,98832.63
2023-02-20T18:01:55.137Z,98831.59
2023-02-20T18:04:23.074Z,98825.19
2023-02-20T18:06:50.164Z,98822.91
2023-02-20T18:09:18.761Z,98812.00
2023-02-20T18:11:46.492Z,98822.09
2023-02-20T18:14:14.540Z,98813.25
2023-02-20T18:16:41.744Z,98808.50
2023-02-20T18:19:13.608Z,98807.81
2023-02-20T18:21:42.736Z,98803.09
2023-02-20T18:24:11.528Z,98809.81
2023-02-20T18:26:38.801Z,98806.91
2023-02-20T18:29:06.198Z,98816.06
2023-02-20T18:31:34.516Z,98800.66
2023-02-20T18:34:02.559Z,98804.34
2023-02-20T18:36:29.793Z,98791.03
2023-02-20T18:38:57.867Z,98798.56
2023-02-20T18:41:25.478Z,98798.09
2023-02-20T18:43:52.808Z,98796.47
2023-02-20T18:46:33.029Z,98800.75
2023-02-20T18:49:02.395Z,98792.28
2023-02-20T18:51:36.521Z,98797.41
2023-02-20T18:54:10.883Z,98795.53
2023-02-20T18:56:38.869Z,98775.25
2023-02-20T18:59:06.374Z,98777.91
2023-02-20T19:01:33.989Z,98783.81
2023-02-20T19:04:05.625Z,98776.41
2023-02-20T19:06:46.396Z,98786.03
2023-02-20T19:09:23.464Z,98782.09
2023-02-20T19:11:56.491Z,98782.44
2023-02-20T19:14:27.500Z,98773.38
2023-02-20T19:17:00.251Z,98778.47
2023-02-20T19:19:30.841Z,98780.94
2023-02-20T19:21:59.096Z,98783.59
2023-02-20T19:24:26.904Z,98780.13
2023-02-20T19:26:53.953Z,98765.38
2023-02-20T19:29:21.276Z,98771.75
2023-02-20T19:31:48.265Z,98763.28
2023-02-20T19:34:16.594Z,98761.19
2023-02-20T19:36:43.875Z,98762.81
2023-02-20T19:39:14.528Z,98772.22
2023-02-20T19:41:41.780Z,98763.97
2023-02-20T19:44:15.972Z,98762.13
2023-02-20T19:46:43.781Z,98770.47
2023-02-20T19:49:13.039Z,98761.41
2023-02-20T19:51:47.947Z,98769.19
2023-02-20T19:54:20.008Z,98766.75
2023-02-20T19:57:04.210Z,98771.28
2023-02-20T19:59:31.723Z,98765.34
2023-02-20T20:02:00.881Z,98766.19
2023-02-20T20:04:32.205Z,98767.81
2023-02-20T20:07:02.583Z,98775.00
2023-02-20T20:09:36.723Z,98769.66
2023-02-20T20:12:27.507Z,98769.88
2023-02-20T20:39:55.349Z,98757.72
2023-02-20T20:42:26.748Z,98759.34
2023-02-20T20:44:57.460Z,98749.13
2023-02-20T20:49:05.834Z,98748.09
2023-02-20T20:51:33.457Z,98744.94
2023-02-20T20:54:00.831Z,98748.22
2023-02-20T20:56:28.187Z,98743.66
2023-02-20T20:58:55.094Z,98743.91
2023-02-20T21:01:22.611Z,98749.81
2023-02-20T21:03:49.701Z,98733.81
2023-02-20T21:06:16.877Z,98737.53
2023-02-20T21:08:43.796Z,98725.59
2023-02-20T21:11:23.395Z,98706.66
2023-02-20T21:13:50.335Z,98719.75
2023-02-20T21:21:17.482Z,98715.34
2023-02-20T21:23:45.449Z,98700.97
2023-02-20T21:26:39.457Z,98702.34
2023-02-20T21:29:07.792Z,98690.41
2023-02-20T21:31:36.419Z,98701.41
2023-02-20T21:34:04.298Z,98711.25
2023-02-20T21:36:31.620Z,98698.50
2023-02-20T21:38:58.761Z,98703.84
2023-02-20T21:41:45.267Z,98700.13
2023-02-20T21:44:27.867Z,98694.31
2023-02-20T21:46:59.076Z,98700.50
2023-02-20T21:49:28.579Z,98701.28
2023-02-20T21:51:56.402Z,98695.94
2023-02-20T21:54:28.072Z,98695.94
2023-02-20T21:56:56.566Z,98694.31
2023-02-20T21:59:23.879Z,98698.00
2023-02-20T22:01:52.324Z,98686.56
2023-02-20T22:04:20.693Z,98680.41
2023-02-20T22:07:08.207Z,98685.72
2023-02-20T22:09:54.160Z,98682.00
2023-02-20T22:12:40.688Z,98664.38
2023-02-20T22:15:27.193Z,98663.91
2023-02-20T22:18:13.600Z,98663.31
2023-02-20T22:20:59.496Z,98655.28
2023-02-20T22:23:45.360Z,98655.28
2023-02-20T22:26:35.066Z,98656.94
2023-02-20T22:29:22.723Z,98663.56
2023-02-20T22:32:09.481Z,98668.31
2023-02-20T22:35:09.605Z,98653.03
2023-02-20T22:37:57.028Z,98650.81
2023-02-20T22:40:43.493Z,98641.66
2023-02-20T22:43:28.970Z,98646.41
2023-02-20T22:46:15.031Z,98628.44
2023-02-20T22:49:02.393Z,98653.28
2023-02-20T22:51:48.451Z,98646.31
2023-02-20T22:54:34.543Z,98640.97
2023-02-20T22:57:23.707Z,98640.97
2023-02-20T23:00:09.427Z,98629.00
2023-02-20T23:02:55.590Z,98640.03
2023-02-20T23:05:41.593Z,98639.56
2023-02-20T23:08:27.446Z,98631.56
2023-02-20T23:11:13.144Z,98632.13
2023-02-20T23:13:59.265Z,98632.69
2023-02-20T23:16:44.841Z,98635.72
2023-02-20T23:19:31.016Z,98642.09
2023-02-20T23:22:16.752Z,98641.28
2023-02-20T23:25:02.636Z,98649.28
2023-02-20T23:27:48.063Z,98655.69
2023-02-20T23:30:34.267Z,98664.84
2023-02-20T23:33:20.052Z,98676.56
2023-02-20T23:36:06.393Z,98657.88
2023-02-20T23:38:51.905Z,98662.75
2023-02-20T23:41:37.735Z,98668.06
2023-02-20T23:44:26.630Z,98669.94
2023-02-20T23:47:12.327Z,98663.22
2023-02-20T23:49:58.204Z,98679.22
2023-02-20T23:52:44.021Z,98674.69
2023-02-20T23:55:29.772Z,98667.50
2023-02-20T23:58:15.840Z,98662.16
